Terminal Aerodrome Forecast
Issued by NWS San Angelo, TX

Home | Current Version | Previous Version | Text Only | Print | Product List | Glossary On
Versions: 1 2 3 4 5 6 7 8 9 10 11 12 13
000
FTUS44 KSJT 252335
TAFSJT
TAF
KSJT 252335Z 2600/2624 09006KT P6SM FEW070
     FM260500 18004KT P6SM SCT150
     FM261800 09007KT P6SM VCSH SCT060 BKN250=

USA.gov is the U.S. government's official web portal to all federal, state and local government web resources and services.